sensor_id;sensor_type;location;lat;lon;timestamp;temperature;humidity
25440;DHT22;13365;52.208;5.488;2023-05-29T00:02:13;14.10;96.90
25440;DHT22;13365;52.208;5.488;2023-05-29T00:04:38;14.10;97.10
25440;DHT22;13365;52.208;5.488;2023-05-29T00:07:05;14.10;96.90
25440;DHT22;13365;52.208;5.488;2023-05-29T00:09:30;14.10;97.00
25440;DHT22;13365;52.208;5.488;2023-05-29T00:11:56;14.00;96.80
25440;DHT22;13365;52.208;5.488;2023-05-29T00:14:22;14.20;96.70
25440;DHT22;13365;52.208;5.488;2023-05-29T00:16:50;14.20;96.40
25440;DHT22;13365;52.208;5.488;2023-05-29T00:19:16;14.20;96.20
25440;DHT22;13365;52.208;5.488;2023-05-29T00:21:49;14.00;96.50
25440;DHT22;13365;52.208;5.488;2023-05-29T00:24:15;13.90;96.60
25440;DHT22;13365;52.208;5.488;2023-05-29T00:26:41;14.00;96.70
25440;DHT22;13365;52.208;5.488;2023-05-29T00:29:07;14.00;96.70
25440;DHT22;13365;52.208;5.488;2023-05-29T00:31:32;13.90;96.60
25440;DHT22;13365;52.208;5.488;2023-05-29T00:33:58;13.90;96.80
25440;DHT22;13365;52.208;5.488;2023-05-29T00:36:24;13.70;97.10
25440;DHT22;13365;52.208;5.488;2023-05-29T00:38:50;13.70;97.30
25440;DHT22;13365;52.208;5.488;2023-05-29T00:41:16;13.80;97.10
25440;DHT22;13365;52.208;5.488;2023-05-29T00:43:42;13.90;96.80
25440;DHT22;13365;52.208;5.488;2023-05-29T00:46:09;14.10;96.50
25440;DHT22;13365;52.208;5.488;2023-05-29T00:48:35;14.10;96.20
25440;DHT22;13365;52.208;5.488;2023-05-29T00:51:00;14.10;96.00
25440;DHT22;13365;52.208;5.488;2023-05-29T00:53:26;14.10;96.00
25440;DHT22;13365;52.208;5.488;2023-05-29T00:55:52;14.10;96.10
25440;DHT22;13365;52.208;5.488;2023-05-29T00:58:19;13.90;96.20
25440;DHT22;13365;52.208;5.488;2023-05-29T01:00:45;14.10;96.30
25440;DHT22;13365;52.208;5.488;2023-05-29T01:03:12;14.30;95.70
25440;DHT22;13365;52.208;5.488;2023-05-29T01:05:40;14.40;95.30
25440;DHT22;13365;52.208;5.488;2023-05-29T01:08:06;14.40;95.20
25440;DHT22;13365;52.208;5.488;2023-05-29T01:10:32;14.50;95.00
25440;DHT22;13365;52.208;5.488;2023-05-29T01:13:22;14.40;94.80
25440;DHT22;13365;52.208;5.488;2023-05-29T01:16:00;14.40;94.70
25440;DHT22;13365;52.208;5.488;2023-05-29T01:18:41;14.50;94.50
25440;DHT22;13365;52.208;5.488;2023-05-29T01:21:27;14.40;94.60
25440;DHT22;13365;52.208;5.488;2023-05-29T01:27:14;14.10;95.00
25440;DHT22;13365;52.208;5.488;2023-05-29T01:29:43;14.20;95.00
25440;DHT22;13365;52.208;5.488;2023-05-29T01:32:09;14.10;95.20
25440;DHT22;13365;52.208;5.488;2023-05-29T01:34:35;14.10;95.30
25440;DHT22;13365;52.208;5.488;2023-05-29T01:37:01;14.20;95.30
25440;DHT22;13365;52.208;5.488;2023-05-29T01:39:26;14.10;95.00
25440;DHT22;13365;52.208;5.488;2023-05-29T01:41:53;14.10;95.40
25440;DHT22;13365;52.208;5.488;2023-05-29T01:44:20;14.10;95.40
25440;DHT22;13365;52.208;5.488;2023-05-29T01:46:47;14.20;95.20
25440;DHT22;13365;52.208;5.488;2023-05-29T01:49:14;14.20;94.80
25440;DHT22;13365;52.208;5.488;2023-05-29T01:51:41;14.10;94.90
25440;DHT22;13365;52.208;5.488;2023-05-29T01:54:07;14.20;95.00
25440;DHT22;13365;52.208;5.488;2023-05-29T01:56:33;14.20;94.70
25440;DHT22;13365;52.208;5.488;2023-05-29T01:59:01;14.30;94.80
25440;DHT22;13365;52.208;5.488;2023-05-29T02:01:27;14.20;94.80
25440;DHT22;13365;52.208;5.488;2023-05-29T02:03:53;14.10;94.80
25440;DHT22;13365;52.208;5.488;2023-05-29T02:06:19;14.00;95.10
25440;DHT22;13365;52.208;5.488;2023-05-29T02:08:45;14.00;95.30
25440;DHT22;13365;52.208;5.488;2023-05-29T02:11:11;14.00;95.30
25440;DHT22;13365;52.208;5.488;2023-05-29T02:13:37;13.90;95.30
25440;DHT22;13365;52.208;5.488;2023-05-29T02:16:02;13.90;95.40
25440;DHT22;13365;52.208;5.488;2023-05-29T02:18:28;13.80;95.60
25440;DHT22;13365;52.208;5.488;2023-05-29T02:20:53;13.80;95.80
25440;DHT22;13365;52.208;5.488;2023-05-29T02:23:19;13.90;95.40
25440;DHT22;13365;52.208;5.488;2023-05-29T02:25:45;14.00;95.20
25440;DHT22;13365;52.208;5.488;2023-05-29T02:28:11;13.90;95.20
25440;DHT22;13365;52.208;5.488;2023-05-29T02:30:36;13.90;95.30
25440;DHT22;13365;52.208;5.488;2023-05-29T02:33:02;14.00;95.30
25440;DHT22;13365;52.208;5.488;2023-05-29T02:35:28;14.10;94.90
25440;DHT22;13365;52.208;5.488;2023-05-29T02:37:53;14.10;94.70
25440;DHT22;13365;52.208;5.488;2023-05-29T02:40:19;13.90;95.00
25440;DHT22;13365;52.208;5.488;2023-05-29T02:42:46;13.80;95.30
25440;DHT22;13365;52.208;5.488;2023-05-29T02:45:12;13.90;95.30
25440;DHT22;13365;52.208;5.488;2023-05-29T02:47:37;13.90;95.20
25440;DHT22;13365;52.208;5.488;2023-05-29T02:50:03;14.00;95.30
25440;DHT22;13365;52.208;5.488;2023-05-29T02:52:31;13.90;95.10
25440;DHT22;13365;52.208;5.488;2023-05-29T02:54:57;13.70;95.30
25440;DHT22;13365;52.208;5.488;2023-05-29T02:57:24;13.70;95.40
25440;DHT22;13365;52.208;5.488;2023-05-29T02:59:49;13.60;95.60
25440;DHT22;13365;52.208;5.488;2023-05-29T03:02:15;13.60;95.70
25440;DHT22;13365;52.208;5.488;2023-05-29T03:04:41;13.40;96.00
25440;DHT22;13365;52.208;5.488;2023-05-29T03:07:06;13.40;96.20
25440;DHT22;13365;52.208;5.488;2023-05-29T03:09:32;13.50;96.10
25440;DHT22;13365;52.208;5.488;2023-05-29T03:11:58;13.30;96.20
25440;DHT22;13365;52.208;5.488;2023-05-29T03:14:23;13.30;96.40
25440;DHT22;13365;52.208;5.488;2023-05-29T03:16:49;13.30;96.30
25440;DHT22;13365;52.208;5.488;2023-05-29T03:19:15;13.30;96.10
25440;DHT22;13365;52.208;5.488;2023-05-29T03:21:41;13.30;96.30
25440;DHT22;13365;52.208;5.488;2023-05-29T03:24:06;13.30;96.20
25440;DHT22;13365;52.208;5.488;2023-05-29T03:26:32;13.30;96.20
25440;DHT22;13365;52.208;5.488;2023-05-29T03:28:57;13.40;95.90
25440;DHT22;13365;52.208;5.488;2023-05-29T03:31:23;13.40;95.90
25440;DHT22;13365;52.208;5.488;2023-05-29T03:33:49;13.30;96.00
25440;DHT22;13365;52.208;5.488;2023-05-29T03:36:15;13.30;96.10
25440;DHT22;13365;52.208;5.488;2023-05-29T03:38:42;13.40;95.90
25440;DHT22;13365;52.208;5.488;2023-05-29T03:41:08;13.30;96.00
25440;DHT22;13365;52.208;5.488;2023-05-29T03:43:33;13.30;96.10
25440;DHT22;13365;52.208;5.488;2023-05-29T03:45:59;13.30;96.00
25440;DHT22;13365;52.208;5.488;2023-05-29T03:48:25;13.50;95.90
25440;DHT22;13365;52.208;5.488;2023-05-29T03:50:50;13.70;95.40
25440;DHT22;13365;52.208;5.488;2023-05-29T03:53:16;13.90;94.90
25440;DHT22;13365;52.208;5.488;2023-05-29T03:55:41;13.90;94.70
25440;DHT22;13365;52.208;5.488;2023-05-29T03:58:07;14.00;94.60
25440;DHT22;13365;52.208;5.488;2023-05-29T04:00:32;14.00;94.30
25440;DHT22;13365;52.208;5.488;2023-05-29T04:02:58;14.30;94.20
25440;DHT22;13365;52.208;5.488;2023-05-29T04:05:23;14.00;94.00
25440;DHT22;13365;52.208;5.488;2023-05-29T04:07:49;14.00;94.30
25440;DHT22;13365;52.208;5.488;2023-05-29T04:10:14;14.00;94.40
25440;DHT22;13365;52.208;5.488;2023-05-29T04:12:40;13.90;94.40
25440;DHT22;13365;52.208;5.488;2023-05-29T04:15:06;14.00;94.40
25440;DHT22;13365;52.208;5.488;2023-05-29T04:17:32;13.90;94.50
25440;DHT22;13365;52.208;5.488;2023-05-29T04:19:57;13.80;94.70
25440;DHT22;13365;52.208;5.488;2023-05-29T04:22:23;13.70;95.00
25440;DHT22;13365;52.208;5.488;2023-05-29T04:24:49;13.50;95.10
25440;DHT22;13365;52.208;5.488;2023-05-29T04:27:14;13.50;95.50
25440;DHT22;13365;52.208;5.488;2023-05-29T04:29:43;13.60;95.60
25440;DHT22;13365;52.208;5.488;2023-05-29T04:32:09;13.70;95.30
25440;DHT22;13365;52.208;5.488;2023-05-29T04:34:37;13.80;95.10
25440;DHT22;13365;52.208;5.488;2023-05-29T04:37:04;14.00;94.80
25440;DHT22;13365;52.208;5.488;2023-05-29T04:39:30;14.10;94.60
25440;DHT22;13365;52.208;5.488;2023-05-29T04:41:55;14.20;94.40
25440;DHT22;13365;52.208;5.488;2023-05-29T04:44:24;14.00;94.30
25440;DHT22;13365;52.208;5.488;2023-05-29T04:46:52;13.90;94.60
25440;DHT22;13365;52.208;5.488;2023-05-29T04:49:18;13.90;94.80
25440;DHT22;13365;52.208;5.488;2023-05-29T04:51:43;13.90;95.00
25440;DHT22;13365;52.208;5.488;2023-05-29T04:54:12;14.00;95.00
25440;DHT22;13365;52.208;5.488;2023-05-29T04:56:38;14.00;94.90
25440;DHT22;13365;52.208;5.488;2023-05-29T04:59:05;14.10;94.70
25440;DHT22;13365;52.208;5.488;2023-05-29T05:01:32;14.20;94.60
25440;DHT22;13365;52.208;5.488;2023-05-29T05:03:59;14.30;94.20
25440;DHT22;13365;52.208;5.488;2023-05-29T05:06:25;14.40;94.10
25440;DHT22;13365;52.208;5.488;2023-05-29T05:08:52;14.50;93.70
25440;DHT22;13365;52.208;5.488;2023-05-29T05:11:18;14.60;93.80
25440;DHT22;13365;52.208;5.488;2023-05-29T05:13:44;14.70;93.50
25440;DHT22;13365;52.208;5.488;2023-05-29T05:16:10;14.60;93.70
25440;DHT22;13365;52.208;5.488;2023-05-29T05:18:36;14.50;93.70
25440;DHT22;13365;52.208;5.488;2023-05-29T05:21:02;14.50;93.70
25440;DHT22;13365;52.208;5.488;2023-05-29T05:23:29;14.50;93.70
25440;DHT22;13365;52.208;5.488;2023-05-29T05:25:55;14.40;93.70
25440;DHT22;13365;52.208;5.488;2023-05-29T05:28:21;14.40;93.50
25440;DHT22;13365;52.208;5.488;2023-05-29T05:30:47;14.30;93.90
25440;DHT22;13365;52.208;5.488;2023-05-29T05:33:13;14.50;94.20
25440;DHT22;13365;52.208;5.488;2023-05-29T05:35:38;14.60;94.00
25440;DHT22;13365;52.208;5.488;2023-05-29T05:38:04;14.60;93.60
25440;DHT22;13365;52.208;5.488;2023-05-29T05:40:29;14.40;93.30
25440;DHT22;13365;52.208;5.488;2023-05-29T05:42:55;14.40;93.90
25440;DHT22;13365;52.208;5.488;2023-05-29T05:45:21;14.50;93.60
25440;DHT22;13365;52.208;5.488;2023-05-29T05:47:47;14.60;93.50
25440;DHT22;13365;52.208;5.488;2023-05-29T05:50:12;14.70;93.00
25440;DHT22;13365;52.208;5.488;2023-05-29T05:52:38;14.70;93.30
25440;DHT22;13365;52.208;5.488;2023-05-29T05:55:04;15.00;93.10
25440;DHT22;13365;52.208;5.488;2023-05-29T05:57:30;15.20;92.30
25440;DHT22;13365;52.208;5.488;2023-05-29T05:59:58;15.30;91.80
25440;DHT22;13365;52.208;5.488;2023-05-29T06:02:23;15.30;92.10
25440;DHT22;13365;52.208;5.488;2023-05-29T06:04:49;15.30;91.80
25440;DHT22;13365;52.208;5.488;2023-05-29T06:07:15;15.30;91.90
25440;DHT22;13365;52.208;5.488;2023-05-29T06:09:41;15.00;91.50
25440;DHT22;13365;52.208;5.488;2023-05-29T06:12:07;14.90;91.60
25440;DHT22;13365;52.208;5.488;2023-05-29T06:14:33;14.70;92.40
25440;DHT22;13365;52.208;5.488;2023-05-29T06:17:00;14.80;92.70
25440;DHT22;13365;52.208;5.488;2023-05-29T06:19:26;14.80;91.80
25440;DHT22;13365;52.208;5.488;2023-05-29T06:21:52;14.80;92.10
25440;DHT22;13365;52.208;5.488;2023-05-29T06:24:17;14.50;91.50
25440;DHT22;13365;52.208;5.488;2023-05-29T06:26:42;14.50;91.90
25440;DHT22;13365;52.208;5.488;2023-05-29T06:29:08;14.70;92.10
25440;DHT22;13365;52.208;5.488;2023-05-29T06:31:34;14.80;91.10
25440;DHT22;13365;52.208;5.488;2023-05-29T06:33:59;15.00;91.30
25440;DHT22;13365;52.208;5.488;2023-05-29T06:36:25;15.30;91.10
25440;DHT22;13365;52.208;5.488;2023-05-29T06:38:51;15.50;90.10
25440;DHT22;13365;52.208;5.488;2023-05-29T06:41:17;15.40;89.40
25440;DHT22;13365;52.208;5.488;2023-05-29T06:43:43;15.20;90.20
25440;DHT22;13365;52.208;5.488;2023-05-29T06:46:10;14.90;90.30
25440;DHT22;13365;52.208;5.488;2023-05-29T06:48:36;14.90;90.40
25440;DHT22;13365;52.208;5.488;2023-05-29T06:51:02;15.10;90.60
25440;DHT22;13365;52.208;5.488;2023-05-29T06:53:38;15.10;90.10
25440;DHT22;13365;52.208;5.488;2023-05-29T06:56:04;14.80;90.00
25440;DHT22;13365;52.208;5.488;2023-05-29T06:58:31;14.70;90.30
25440;DHT22;13365;52.208;5.488;2023-05-29T07:00:57;14.90;90.50
25440;DHT22;13365;52.208;5.488;2023-05-29T07:03:23;15.10;90.50
25440;DHT22;13365;52.208;5.488;2023-05-29T07:05:49;15.40;89.50
25440;DHT22;13365;52.208;5.488;2023-05-29T07:08:14;15.70;89.00
25440;DHT22;13365;52.208;5.488;2023-05-29T07:10:40;16.10;90.00
25440;DHT22;13365;52.208;5.488;2023-05-29T07:13:05;16.20;87.50
25440;DHT22;13365;52.208;5.488;2023-05-29T07:15:34;16.20;86.20
25440;DHT22;13365;52.208;5.488;2023-05-29T07:17:59;16.20;87.30
25440;DHT22;13365;52.208;5.488;2023-05-29T07:20:25;16.40;87.00
25440;DHT22;13365;52.208;5.488;2023-05-29T07:22:50;16.60;86.60
25440;DHT22;13365;52.208;5.488;2023-05-29T07:25:16;16.90;83.90
25440;DHT22;13365;52.208;5.488;2023-05-29T07:27:41;16.70;83.60
25440;DHT22;13365;52.208;5.488;2023-05-29T07:30:08;16.30;83.10
25440;DHT22;13365;52.208;5.488;2023-05-29T07:32:33;16.00;85.70
25440;DHT22;13365;52.208;5.488;2023-05-29T07:34:59;16.20;87.00
25440;DHT22;13365;52.208;5.488;2023-05-29T07:37:25;16.80;83.90
25440;DHT22;13365;52.208;5.488;2023-05-29T07:39:50;17.20;81.70
25440;DHT22;13365;52.208;5.488;2023-05-29T07:42:16;17.60;81.20
25440;DHT22;13365;52.208;5.488;2023-05-29T07:44:42;17.50;77.70
25440;DHT22;13365;52.208;5.488;2023-05-29T07:47:11;17.10;79.20
25440;DHT22;13365;52.208;5.488;2023-05-29T07:49:37;17.10;80.90
25440;DHT22;13365;52.208;5.488;2023-05-29T07:52:03;17.10;80.60
25440;DHT22;13365;52.208;5.488;2023-05-29T07:54:28;17.40;80.30
25440;DHT22;13365;52.208;5.488;2023-05-29T07:56:54;17.70;80.30
25440;DHT22;13365;52.208;5.488;2023-05-29T07:59:20;17.90;80.10
25440;DHT22;13365;52.208;5.488;2023-05-29T08:01:46;17.90;77.00
25440;DHT22;13365;52.208;5.488;2023-05-29T08:04:12;18.00;78.90
25440;DHT22;13365;52.208;5.488;2023-05-29T08:06:38;17.90;77.70
25440;DHT22;13365;52.208;5.488;2023-05-29T08:09:07;18.30;78.30
25440;DHT22;13365;52.208;5.488;2023-05-29T08:11:33;18.50;75.30
25440;DHT22;13365;52.208;5.488;2023-05-29T08:13:58;18.70;75.20
25440;DHT22;13365;52.208;5.488;2023-05-29T08:16:24;18.90;76.80
25440;DHT22;13365;52.208;5.488;2023-05-29T08:18:50;19.10;74.70
25440;DHT22;13365;52.208;5.488;2023-05-29T08:21:15;19.10;73.20
25440;DHT22;13365;52.208;5.488;2023-05-29T08:23:41;19.10;74.90
25440;DHT22;13365;52.208;5.488;2023-05-29T08:26:07;19.20;76.60
25440;DHT22;13365;52.208;5.488;2023-05-29T08:28:32;19.70;73.90
25440;DHT22;13365;52.208;5.488;2023-05-29T08:30:58;20.30;71.30
25440;DHT22;13365;52.208;5.488;2023-05-29T08:33:23;20.80;71.50
25440;DHT22;13365;52.208;5.488;2023-05-29T08:35:49;21.30;70.20
25440;DHT22;13365;52.208;5.488;2023-05-29T08:38:14;21.30;68.00
25440;DHT22;13365;52.208;5.488;2023-05-29T08:40:40;21.30;65.70
25440;DHT22;13365;52.208;5.488;2023-05-29T08:43:22;20.80;65.40
25440;DHT22;13365;52.208;5.488;2023-05-29T08:45:53;20.60;68.90
25440;DHT22;13365;52.208;5.488;2023-05-29T08:48:22;20.10;68.40
25440;DHT22;13365;52.208;5.488;2023-05-29T08:50:49;19.60;70.40
25440;DHT22;13365;52.208;5.488;2023-05-29T08:53:17;19.80;71.90
25440;DHT22;13365;52.208;5.488;2023-05-29T08:55:44;20.20;71.10
25440;DHT22;13365;52.208;5.488;2023-05-29T08:58:13;20.40;70.10
25440;DHT22;13365;52.208;5.488;2023-05-29T09:00:39;20.70;69.30
25440;DHT22;13365;52.208;5.488;2023-05-29T09:03:06;21.00;69.70
25440;DHT22;13365;52.208;5.488;2023-05-29T09:05:32;21.30;66.80
25440;DHT22;13365;52.208;5.488;2023-05-29T09:07:57;21.60;66.80
25440;DHT22;13365;52.208;5.488;2023-05-29T09:10:24;21.40;67.80
25440;DHT22;13365;52.208;5.488;2023-05-29T09:12:51;21.50;67.40
25440;DHT22;13365;52.208;5.488;2023-05-29T09:15:21;21.30;65.40
25440;DHT22;13365;52.208;5.488;2023-05-29T09:17:55;20.60;66.80
25440;DHT22;13365;52.208;5.488;2023-05-29T09:20:23;19.90;69.80
25440;DHT22;13365;52.208;5.488;2023-05-29T09:22:56;19.90;73.40
25440;DHT22;13365;52.208;5.488;2023-05-29T09:25:24;20.30;69.60
25440;DHT22;13365;52.208;5.488;2023-05-29T09:27:56;20.30;68.70
25440;DHT22;13365;52.208;5.488;2023-05-29T09:30:37;20.40;68.40
25440;DHT22;13365;52.208;5.488;2023-05-29T09:33:03;20.30;68.30
25440;DHT22;13365;52.208;5.488;2023-05-29T09:35:34;20.70;68.30
25440;DHT22;13365;52.208;5.488;2023-05-29T09:38:00;21.00;67.40
25440;DHT22;13365;52.208;5.488;2023-05-29T09:40:26;21.00;67.80
25440;DHT22;13365;52.208;5.488;2023-05-29T09:42:54;21.00;69.40
25440;DHT22;13365;52.208;5.488;2023-05-29T09:45:21;21.40;67.50
25440;DHT22;13365;52.208;5.488;2023-05-29T09:47:47;21.80;65.40
25440;DHT22;13365;52.208;5.488;2023-05-29T09:50:20;22.00;63.70
25440;DHT22;13365;52.208;5.488;2023-05-29T09:52:48;22.20;64.20
25440;DHT22;13365;52.208;5.488;2023-05-29T09:55:18;22.50;63.00
25440;DHT22;13365;52.208;5.488;2023-05-29T09:57:47;22.40;62.70
25440;DHT22;13365;52.208;5.488;2023-05-29T10:00:15;22.70;64.20
25440;DHT22;13365;52.208;5.488;2023-05-29T10:02:41;22.70;62.60
25440;DHT22;13365;52.208;5.488;2023-05-29T10:05:07;22.60;60.90
25440;DHT22;13365;52.208;5.488;2023-05-29T10:07:37;21.80;61.20
25440;DHT22;13365;52.208;5.488;2023-05-29T10:10:06;20.90;66.00
25440;DHT22;13365;52.208;5.488;2023-05-29T10:12:54;20.60;68.70
25440;DHT22;13365;52.208;5.488;2023-05-29T10:15:23;20.60;69.00
25440;DHT22;13365;52.208;5.488;2023-05-29T10:17:49;20.80;69.10
25440;DHT22;13365;52.208;5.488;2023-05-29T10:20:17;20.90;66.60
25440;DHT22;13365;52.208;5.488;2023-05-29T10:22:47;21.00;69.00
25440;DHT22;13365;52.208;5.488;2023-05-29T10:25:14;21.20;65.70
25440;DHT22;13365;52.208;5.488;2023-05-29T10:27:41;21.10;65.50
25440;DHT22;13365;52.208;5.488;2023-05-29T10:30:27;20.70;64.90
25440;DHT22;13365;52.208;5.488;2023-05-29T10:33:15;20.60;67.30
25440;DHT22;13365;52.208;5.488;2023-05-29T10:36:01;20.70;68.90
25440;DHT22;13365;52.208;5.488;2023-05-29T10:38:30;20.80;67.60
25440;DHT22;13365;52.208;5.488;2023-05-29T10:40:56;20.70;67.10
25440;DHT22;13365;52.208;5.488;2023-05-29T10:43:32;20.80;66.50
25440;DHT22;13365;52.208;5.488;2023-05-29T10:45:59;21.20;66.70
25440;DHT22;13365;52.208;5.488;2023-05-29T10:50:54;20.90;68.90
25440;DHT22;13365;52.208;5.488;2023-05-29T10:53:25;21.00;66.10
25440;DHT22;13365;52.208;5.488;2023-05-29T10:55:52;20.80;65.10
25440;DHT22;13365;52.208;5.488;2023-05-29T10:58:19;20.70;65.90
25440;DHT22;13365;52.208;5.488;2023-05-29T11:00:46;20.50;64.70
25440;DHT22;13365;52.208;5.488;2023-05-29T11:03:20;20.80;65.70
25440;DHT22;13365;52.208;5.488;2023-05-29T11:06:18;21.20;65.10
25440;DHT22;13365;52.208;5.488;2023-05-29T11:08:52;21.80;63.10
25440;DHT22;13365;52.208;5.488;2023-05-29T11:13:53;21.90;65.50
25440;DHT22;13365;52.208;5.488;2023-05-29T11:18:52;21.70;63.90
25440;DHT22;13365;52.208;5.488;2023-05-29T11:21:33;21.70;61.80
25440;DHT22;13365;52.208;5.488;2023-05-29T11:24:00;21.70;63.70
25440;DHT22;13365;52.208;5.488;2023-05-29T11:26:28;21.50;62.10
25440;DHT22;13365;52.208;5.488;2023-05-29T11:29:01;21.50;65.30
25440;DHT22;13365;52.208;5.488;2023-05-29T11:31:28;21.70;63.90
25440;DHT22;13365;52.208;5.488;2023-05-29T11:33:59;21.80;62.50
25440;DHT22;13365;52.208;5.488;2023-05-29T11:36:26;22.20;62.40
25440;DHT22;13365;52.208;5.488;2023-05-29T11:38:52;22.40;60.90
25440;DHT22;13365;52.208;5.488;2023-05-29T11:41:18;22.70;61.00
25440;DHT22;13365;52.208;5.488;2023-05-29T11:43:44;23.10;63.90
25440;DHT22;13365;52.208;5.488;2023-05-29T11:46:16;23.10;61.00
25440;DHT22;13365;52.208;5.488;2023-05-29T11:48:48;22.30;60.00
25440;DHT22;13365;52.208;5.488;2023-05-29T11:51:14;21.60;59.90
25440;DHT22;13365;52.208;5.488;2023-05-29T11:53:41;21.00;61.90
25440;DHT22;13365;52.208;5.488;2023-05-29T11:56:10;21.20;63.40
25440;DHT22;13365;52.208;5.488;2023-05-29T11:58:40;21.30;62.20
25440;DHT22;13365;52.208;5.488;2023-05-29T12:01:06;21.80;62.60
25440;DHT22;13365;52.208;5.488;2023-05-29T12:03:43;21.40;58.30
25440;DHT22;13365;52.208;5.488;2023-05-29T12:06:09;20.80;60.50
25440;DHT22;13365;52.208;5.488;2023-05-29T12:08:36;20.70;63.20
25440;DHT22;13365;52.208;5.488;2023-05-29T12:11:02;20.70;65.30
25440;DHT22;13365;52.208;5.488;2023-05-29T12:13:28;20.70;66.20
25440;DHT22;13365;52.208;5.488;2023-05-29T12:15:57;20.70;66.30
25440;DHT22;13365;52.208;5.488;2023-05-29T12:18:24;21.10;67.60
25440;DHT22;13365;52.208;5.488;2023-05-29T12:20:50;21.50;64.60
25440;DHT22;13365;52.208;5.488;2023-05-29T12:23:17;21.80;62.50
25440;DHT22;13365;52.208;5.488;2023-05-29T12:25:46;21.90;60.60
25440;DHT22;13365;52.208;5.488;2023-05-29T12:28:16;21.70;59.80
25440;DHT22;13365;52.208;5.488;2023-05-29T12:30:42;21.80;60.10
25440;DHT22;13365;52.208;5.488;2023-05-29T12:33:09;21.70;64.90
25440;DHT22;13365;52.208;5.488;2023-05-29T12:35:34;22.00;64.50
25440;DHT22;13365;52.208;5.488;2023-05-29T12:38:07;22.50;63.70
25440;DHT22;13365;52.208;5.488;2023-05-29T12:40:35;22.80;64.30
25440;DHT22;13365;52.208;5.488;2023-05-29T12:43:07;22.90;60.00
25440;DHT22;13365;52.208;5.488;2023-05-29T12:45:36;23.20;59.90
25440;DHT22;13365;52.208;5.488;2023-05-29T12:48:06;23.50;59.50
25440;DHT22;13365;52.208;5.488;2023-05-29T12:50:34;23.40;59.70
25440;DHT22;13365;52.208;5.488;2023-05-29T12:53:01;23.50;58.80
25440;DHT22;13365;52.208;5.488;2023-05-29T12:55:28;23.50;58.80
25440;DHT22;13365;52.208;5.488;2023-05-29T12:57:55;23.30;58.70
25440;DHT22;13365;52.208;5.488;2023-05-29T13:00:22;23.60;59.10
25440;DHT22;13365;52.208;5.488;2023-05-29T13:02:48;23.90;58.50
25440;DHT22;13365;52.208;5.488;2023-05-29T13:05:14;24.00;59.20
25440;DHT22;13365;52.208;5.488;2023-05-29T13:07:42;24.20;58.60
25440;DHT22;13365;52.208;5.488;2023-05-29T13:10:08;23.90;57.80
25440;DHT22;13365;52.208;5.488;2023-05-29T13:12:34;23.70;58.90
25440;DHT22;13365;52.208;5.488;2023-05-29T13:15:00;23.60;58.80
25440;DHT22;13365;52.208;5.488;2023-05-29T13:17:26;23.50;59.80
25440;DHT22;13365;52.208;5.488;2023-05-29T13:19:51;23.10;59.10
25440;DHT22;13365;52.208;5.488;2023-05-29T13:22:17;23.00;60.20
25440;DHT22;13365;52.208;5.488;2023-05-29T13:24:42;23.00;61.40
25440;DHT22;13365;52.208;5.488;2023-05-29T13:27:08;23.00;61.40
25440;DHT22;13365;52.208;5.488;2023-05-29T13:29:34;22.60;60.20
25440;DHT22;13365;52.208;5.488;2023-05-29T13:32:00;22.50;60.10
25440;DHT22;13365;52.208;5.488;2023-05-29T13:34:26;22.80;59.70
25440;DHT22;13365;52.208;5.488;2023-05-29T13:36:57;23.10;58.80
25440;DHT22;13365;52.208;5.488;2023-05-29T13:39:23;23.40;60.10
25440;DHT22;13365;52.208;5.488;2023-05-29T13:41:50;23.10;59.10
25440;DHT22;13365;52.208;5.488;2023-05-29T13:44:15;22.50;59.90
25440;DHT22;13365;52.208;5.488;2023-05-29T13:46:41;22.40;61.10
25440;DHT22;13365;52.208;5.488;2023-05-29T13:49:06;22.30;59.50
25440;DHT22;13365;52.208;5.488;2023-05-29T13:51:33;22.00;59.70
25440;DHT22;13365;52.208;5.488;2023-05-29T13:53:59;22.10;61.30
25440;DHT22;13365;52.208;5.488;2023-05-29T13:56:24;22.20;59.30
25440;DHT22;13365;52.208;5.488;2023-05-29T13:58:52;22.00;59.00
25440;DHT22;13365;52.208;5.488;2023-05-29T14:01:18;22.00;59.50
25440;DHT22;13365;52.208;5.488;2023-05-29T14:03:45;21.90;59.30
25440;DHT22;13365;52.208;5.488;2023-05-29T14:06:11;21.90;59.60
25440;DHT22;13365;52.208;5.488;2023-05-29T14:08:36;21.70;58.20
25440;DHT22;13365;52.208;5.488;2023-05-29T14:11:02;21.60;59.80
25440;DHT22;13365;52.208;5.488;2023-05-29T14:13:28;21.80;59.30
25440;DHT22;13365;52.208;5.488;2023-05-29T14:15:53;22.00;59.10
25440;DHT22;13365;52.208;5.488;2023-05-29T14:18:21;22.40;59.20
25440;DHT22;13365;52.208;5.488;2023-05-29T14:20:47;22.20;57.80
25440;DHT22;13365;52.208;5.488;2023-05-29T14:23:14;22.10;57.50
25440;DHT22;13365;52.208;5.488;2023-05-29T14:25:41;22.10;57.90
25440;DHT22;13365;52.208;5.488;2023-05-29T14:28:07;22.20;57.60
25440;DHT22;13365;52.208;5.488;2023-05-29T14:30:32;21.90;59.00
25440;DHT22;13365;52.208;5.488;2023-05-29T14:32:58;22.00;58.20
25440;DHT22;13365;52.208;5.488;2023-05-29T14:35:24;22.20;57.30
25440;DHT22;13365;52.208;5.488;2023-05-29T14:37:50;22.50;59.20
25440;DHT22;13365;52.208;5.488;2023-05-29T14:40:15;22.00;58.50
25440;DHT22;13365;52.208;5.488;2023-05-29T14:42:41;21.60;58.70
25440;DHT22;13365;52.208;5.488;2023-05-29T14:45:06;21.50;62.60
25440;DHT22;13365;52.208;5.488;2023-05-29T14:47:32;21.50;61.30
25440;DHT22;13365;52.208;5.488;2023-05-29T14:49:58;21.90;60.50
25440;DHT22;13365;52.208;5.488;2023-05-29T14:52:24;22.50;59.10
25440;DHT22;13365;52.208;5.488;2023-05-29T14:54:49;22.80;58.00
25440;DHT22;13365;52.208;5.488;2023-05-29T14:57:15;23.10;58.30
25440;DHT22;13365;52.208;5.488;2023-05-29T14:59:41;23.40;57.00
25440;DHT22;13365;52.208;5.488;2023-05-29T15:02:07;23.60;58.70
25440;DHT22;13365;52.208;5.488;2023-05-29T15:04:33;24.10;57.30
25440;DHT22;13365;52.208;5.488;2023-05-29T15:06:58;24.40;57.50
25440;DHT22;13365;52.208;5.488;2023-05-29T15:09:24;24.50;55.40
25440;DHT22;13365;52.208;5.488;2023-05-29T15:11:49;24.80;56.40
25440;DHT22;13365;52.208;5.488;2023-05-29T15:14:16;24.70;54.00
25440;DHT22;13365;52.208;5.488;2023-05-29T15:16:42;24.40;54.00
25440;DHT22;13365;52.208;5.488;2023-05-29T15:19:08;24.20;53.40
25440;DHT22;13365;52.208;5.488;2023-05-29T15:21:33;24.70;56.00
25440;DHT22;13365;52.208;5.488;2023-05-29T15:23:59;25.10;52.60
25440;DHT22;13365;52.208;5.488;2023-05-29T15:26:24;25.50;53.20
25440;DHT22;13365;52.208;5.488;2023-05-29T15:28:50;25.00;51.60
25440;DHT22;13365;52.208;5.488;2023-05-29T15:31:16;24.20;52.00
25440;DHT22;13365;52.208;5.488;2023-05-29T15:33:43;23.90;53.10
25440;DHT22;13365;52.208;5.488;2023-05-29T15:36:08;24.00;52.70
25440;DHT22;13365;52.208;5.488;2023-05-29T15:38:35;24.10;54.20
25440;DHT22;13365;52.208;5.488;2023-05-29T15:41:00;23.70;54.70